sensor_id;sensor_type;location;lat;lon;timestamp;P1;durP1;ratioP1;P2;durP2;ratioP2
16506;SDS011;8366;51.020;7.642;2022-09-24T00:01:14;7.33;;;4.60;;
16506;SDS011;8366;51.020;7.642;2022-09-24T00:03:42;6.20;;;4.10;;
16506;SDS011;8366;51.020;7.642;2022-09-24T00:06:10;4.53;;;4.13;;
16506;SDS011;8366;51.020;7.642;2022-09-24T00:08:38;6.60;;;4.23;;
16506;SDS011;8366;51.020;7.642;2022-09-24T00:11:07;6.27;;;4.10;;
16506;SDS011;8366;51.020;7.642;2022-09-24T00:13:34;5.77;;;4.63;;
16506;SDS011;8366;51.020;7.642;2022-09-24T00:16:02;5.53;;;4.27;;
16506;SDS011;8366;51.020;7.642;2022-09-24T00:18:30;5.03;;;4.40;;
16506;SDS011;8366;51.020;7.642;2022-09-24T00:20:57;7.23;;;4.57;;
16506;SDS011;8366;51.020;7.642;2022-09-24T00:23:24;6.30;;;4.70;;
16506;SDS011;8366;51.020;7.642;2022-09-24T00:25:50;5.90;;;4.47;;
16506;SDS011;8366;51.020;7.642;2022-09-24T00:28:36;6.43;;;4.40;;
16506;SDS011;8366;51.020;7.642;2022-09-24T00:31:03;5.87;;;4.43;;
16506;SDS011;8366;51.020;7.642;2022-09-24T00:33:31;6.53;;;4.37;;
16506;SDS011;8366;51.020;7.642;2022-09-24T00:35:58;5.10;;;4.40;;
16506;SDS011;8366;51.020;7.642;2022-09-24T00:38:26;6.50;;;4.57;;
16506;SDS011;8366;51.020;7.642;2022-09-24T00:40:52;5.20;;;4.00;;
16506;SDS011;8366;51.020;7.642;2022-09-24T00:43:20;9.23;;;4.63;;
16506;SDS011;8366;51.020;7.642;2022-09-24T00:45:48;6.77;;;3.93;;
16506;SDS011;8366;51.020;7.642;2022-09-24T00:48:16;6.17;;;4.60;;
16506;SDS011;8366;51.020;7.642;2022-09-24T00:50:42;5.17;;;4.07;;
16506;SDS011;8366;51.020;7.642;2022-09-24T00:53:09;6.37;;;4.20;;
16506;SDS011;8366;51.020;7.642;2022-09-24T00:55:38;6.23;;;4.60;;
16506;SDS011;8366;51.020;7.642;2022-09-24T00:58:06;8.77;;;4.87;;
16506;SDS011;8366;51.020;7.642;2022-09-24T01:00:33;7.20;;;4.80;;
16506;SDS011;8366;51.020;7.642;2022-09-24T01:03:04;5.00;;;4.50;;
16506;SDS011;8366;51.020;7.642;2022-09-24T01:05:33;6.77;;;4.63;;
16506;SDS011;8366;51.020;7.642;2022-09-24T01:08:01;5.57;;;4.47;;
16506;SDS011;8366;51.020;7.642;2022-09-24T01:10:32;8.37;;;4.60;;
16506;SDS011;8366;51.020;7.642;2022-09-24T01:13:20;6.10;;;4.47;;
16506;SDS011;8366;51.020;7.642;2022-09-24T01:15:54;6.47;;;4.50;;
16506;SDS011;8366;51.020;7.642;2022-09-24T01:18:27;4.83;;;4.33;;
16506;SDS011;8366;51.020;7.642;2022-09-24T01:21:02;4.90;;;4.40;;
16506;SDS011;8366;51.020;7.642;2022-09-24T01:26:47;5.97;;;3.90;;
16506;SDS011;8366;51.020;7.642;2022-09-24T01:29:28;6.37;;;4.60;;
16506;SDS011;8366;51.020;7.642;2022-09-24T01:31:58;6.60;;;4.63;;
16506;SDS011;8366;51.020;7.642;2022-09-24T01:34:35;6.13;;;4.40;;
16506;SDS011;8366;51.020;7.642;2022-09-24T01:37:04;7.27;;;4.20;;
16506;SDS011;8366;51.020;7.642;2022-09-24T01:39:31;8.37;;;4.67;;
16506;SDS011;8366;51.020;7.642;2022-09-24T01:41:58;7.17;;;4.43;;
16506;SDS011;8366;51.020;7.642;2022-09-24T01:44:25;7.90;;;4.47;;
16506;SDS011;8366;51.020;7.642;2022-09-24T01:46:53;5.80;;;4.60;;
16506;SDS011;8366;51.020;7.642;2022-09-24T01:49:19;6.20;;;4.40;;
16506;SDS011;8366;51.020;7.642;2022-09-24T01:51:46;6.40;;;4.60;;
16506;SDS011;8366;51.020;7.642;2022-09-24T01:54:16;6.30;;;4.70;;
16506;SDS011;8366;51.020;7.642;2022-09-24T01:56:44;6.37;;;4.80;;
16506;SDS011;8366;51.020;7.642;2022-09-24T01:59:13;6.93;;;4.80;;
16506;SDS011;8366;51.020;7.642;2022-09-24T02:01:43;8.17;;;4.60;;
16506;SDS011;8366;51.020;7.642;2022-09-24T02:04:15;7.90;;;5.30;;
16506;SDS011;8366;51.020;7.642;2022-09-24T02:06:45;8.40;;;4.53;;
16506;SDS011;8366;51.020;7.642;2022-09-24T02:09:27;8.33;;;5.37;;
16506;SDS011;8366;51.020;7.642;2022-09-24T02:11:55;6.63;;;4.93;;
16506;SDS011;8366;51.020;7.642;2022-09-24T02:14:23;8.97;;;4.67;;
16506;SDS011;8366;51.020;7.642;2022-09-24T02:16:50;8.30;;;5.33;;
16506;SDS011;8366;51.020;7.642;2022-09-24T02:19:19;8.60;;;5.20;;
16506;SDS011;8366;51.020;7.642;2022-09-24T02:21:49;7.93;;;5.53;;
16506;SDS011;8366;51.020;7.642;2022-09-24T02:24:17;6.93;;;5.13;;
16506;SDS011;8366;51.020;7.642;2022-09-24T02:26:47;10.33;;;4.90;;
16506;SDS011;8366;51.020;7.642;2022-09-24T02:29:13;10.23;;;5.47;;
16506;SDS011;8366;51.020;7.642;2022-09-24T02:31:41;7.13;;;5.70;;
16506;SDS011;8366;51.020;7.642;2022-09-24T02:34:09;9.07;;;5.00;;
16506;SDS011;8366;51.020;7.642;2022-09-24T02:36:48;7.03;;;4.90;;
16506;SDS011;8366;51.020;7.642;2022-09-24T02:39:15;6.57;;;5.20;;
16506;SDS011;8366;51.020;7.642;2022-09-24T02:41:43;6.33;;;4.90;;
16506;SDS011;8366;51.020;7.642;2022-09-24T02:44:11;6.10;;;5.10;;
16506;SDS011;8366;51.020;7.642;2022-09-24T02:46:38;7.23;;;5.47;;
16506;SDS011;8366;51.020;7.642;2022-09-24T02:49:05;7.63;;;4.90;;
16506;SDS011;8366;51.020;7.642;2022-09-24T02:51:31;7.57;;;4.83;;
16506;SDS011;8366;51.020;7.642;2022-09-24T02:53:59;6.93;;;4.27;;
16506;SDS011;8366;51.020;7.642;2022-09-24T02:56:26;7.07;;;4.97;;
16506;SDS011;8366;51.020;7.642;2022-09-24T02:58:52;7.07;;;4.80;;
16506;SDS011;8366;51.020;7.642;2022-09-24T03:01:19;9.00;;;4.97;;
16506;SDS011;8366;51.020;7.642;2022-09-24T03:03:46;8.20;;;4.83;;
16506;SDS011;8366;51.020;7.642;2022-09-24T03:06:12;7.43;;;5.03;;
16506;SDS011;8366;51.020;7.642;2022-09-24T03:08:39;7.67;;;5.17;;
16506;SDS011;8366;51.020;7.642;2022-09-24T03:11:08;7.83;;;5.03;;
16506;SDS011;8366;51.020;7.642;2022-09-24T03:13:34;5.63;;;4.33;;
16506;SDS011;8366;51.020;7.642;2022-09-24T03:16:01;7.93;;;4.90;;
16506;SDS011;8366;51.020;7.642;2022-09-24T03:18:27;7.03;;;4.70;;
16506;SDS011;8366;51.020;7.642;2022-09-24T03:20:54;6.63;;;4.60;;
16506;SDS011;8366;51.020;7.642;2022-09-24T03:23:21;6.83;;;5.33;;
16506;SDS011;8366;51.020;7.642;2022-09-24T03:25:47;9.23;;;4.93;;
16506;SDS011;8366;51.020;7.642;2022-09-24T03:28:15;6.63;;;4.70;;
16506;SDS011;8366;51.020;7.642;2022-09-24T03:30:42;9.20;;;4.43;;
16506;SDS011;8366;51.020;7.642;2022-09-24T03:33:27;7.73;;;4.83;;
16506;SDS011;8366;51.020;7.642;2022-09-24T03:35:55;8.70;;;4.40;;
16506;SDS011;8366;51.020;7.642;2022-09-24T03:38:23;7.73;;;4.73;;
16506;SDS011;8366;51.020;7.642;2022-09-24T03:40:50;5.87;;;4.10;;
16506;SDS011;8366;51.020;7.642;2022-09-24T03:43:18;5.07;;;4.13;;
16506;SDS011;8366;51.020;7.642;2022-09-24T03:45:44;6.30;;;4.00;;
16506;SDS011;8366;51.020;7.642;2022-09-24T03:48:11;6.13;;;4.37;;
16506;SDS011;8366;51.020;7.642;2022-09-24T03:50:38;5.47;;;3.90;;
16506;SDS011;8366;51.020;7.642;2022-09-24T03:53:04;8.67;;;4.40;;
16506;SDS011;8366;51.020;7.642;2022-09-24T03:55:31;6.27;;;4.37;;
16506;SDS011;8366;51.020;7.642;2022-09-24T03:57:57;7.60;;;4.57;;
16506;SDS011;8366;51.020;7.642;2022-09-24T04:00:25;5.63;;;4.33;;
16506;SDS011;8366;51.020;7.642;2022-09-24T04:02:52;4.80;;;4.30;;
16506;SDS011;8366;51.020;7.642;2022-09-24T04:05:18;7.10;;;4.50;;
16506;SDS011;8366;51.020;7.642;2022-09-24T04:07:45;5.80;;;4.63;;
16506;SDS011;8366;51.020;7.642;2022-09-24T04:10:11;5.93;;;4.93;;
16506;SDS011;8366;51.020;7.642;2022-09-24T04:12:38;5.93;;;4.47;;
16506;SDS011;8366;51.020;7.642;2022-09-24T04:15:05;8.23;;;4.67;;
16506;SDS011;8366;51.020;7.642;2022-09-24T04:17:33;6.07;;;4.73;;
16506;SDS011;8366;51.020;7.642;2022-09-24T04:19:59;6.20;;;4.40;;
16506;SDS011;8366;51.020;7.642;2022-09-24T04:22:26;5.07;;;4.57;;
16506;SDS011;8366;51.020;7.642;2022-09-24T04:24:53;6.03;;;4.80;;
16506;SDS011;8366;51.020;7.642;2022-09-24T04:27:19;5.87;;;4.97;;
16506;SDS011;8366;51.020;7.642;2022-09-24T04:29:46;7.03;;;5.00;;
16506;SDS011;8366;51.020;7.642;2022-09-24T04:32:13;7.37;;;5.17;;
16506;SDS011;8366;51.020;7.642;2022-09-24T04:34:41;6.60;;;5.50;;
16506;SDS011;8366;51.020;7.642;2022-09-24T04:37:07;7.23;;;5.60;;
16506;SDS011;8366;51.020;7.642;2022-09-24T04:39:34;6.27;;;5.30;;
16506;SDS011;8366;51.020;7.642;2022-09-24T04:42:00;6.57;;;5.47;;
16506;SDS011;8366;51.020;7.642;2022-09-24T04:44:27;8.43;;;5.07;;
16506;SDS011;8366;51.020;7.642;2022-09-24T04:46:54;6.40;;;5.40;;
16506;SDS011;8366;51.020;7.642;2022-09-24T04:49:24;5.60;;;4.93;;
16506;SDS011;8366;51.020;7.642;2022-09-24T04:51:51;6.03;;;5.20;;
16506;SDS011;8366;51.020;7.642;2022-09-24T04:54:18;6.03;;;4.97;;
16506;SDS011;8366;51.020;7.642;2022-09-24T04:56:44;7.17;;;5.00;;
16506;SDS011;8366;51.020;7.642;2022-09-24T04:59:11;5.50;;;4.70;;
16506;SDS011;8366;51.020;7.642;2022-09-24T05:01:37;5.53;;;4.87;;
16506;SDS011;8366;51.020;7.642;2022-09-24T05:04:04;5.73;;;5.00;;
16506;SDS011;8366;51.020;7.642;2022-09-24T05:06:30;7.27;;;5.47;;
16506;SDS011;8366;51.020;7.642;2022-09-24T05:08:58;10.10;;;5.60;;
16506;SDS011;8366;51.020;7.642;2022-09-24T05:11:25;7.20;;;5.10;;
16506;SDS011;8366;51.020;7.642;2022-09-24T05:13:51;8.53;;;5.20;;
16506;SDS011;8366;51.020;7.642;2022-09-24T05:16:17;9.40;;;5.27;;
16506;SDS011;8366;51.020;7.642;2022-09-24T05:18:44;7.47;;;5.00;;
16506;SDS011;8366;51.020;7.642;2022-09-24T05:21:10;6.03;;;5.37;;
16506;SDS011;8366;51.020;7.642;2022-09-24T05:23:37;8.77;;;5.47;;
16506;SDS011;8366;51.020;7.642;2022-09-24T05:26:04;7.13;;;5.07;;
16506;SDS011;8366;51.020;7.642;2022-09-24T05:28:48;7.70;;;5.37;;
16506;SDS011;8366;51.020;7.642;2022-09-24T05:31:16;7.30;;;5.73;;
16506;SDS011;8366;51.020;7.642;2022-09-24T05:33:42;9.00;;;6.00;;
16506;SDS011;8366;51.020;7.642;2022-09-24T05:36:09;6.93;;;5.67;;
16506;SDS011;8366;51.020;7.642;2022-09-24T05:38:35;6.43;;;5.73;;
16506;SDS011;8366;51.020;7.642;2022-09-24T05:41:01;8.53;;;6.47;;
16506;SDS011;8366;51.020;7.642;2022-09-24T05:43:30;6.63;;;5.93;;
16506;SDS011;8366;51.020;7.642;2022-09-24T05:45:56;8.60;;;6.80;;
16506;SDS011;8366;51.020;7.642;2022-09-24T05:48:23;11.50;;;7.83;;
16506;SDS011;8366;51.020;7.642;2022-09-24T05:50:51;8.37;;;6.87;;
16506;SDS011;8366;51.020;7.642;2022-09-24T05:53:19;9.23;;;6.00;;
16506;SDS011;8366;51.020;7.642;2022-09-24T05:55:46;7.70;;;6.83;;
16506;SDS011;8366;51.020;7.642;2022-09-24T05:58:13;8.33;;;6.07;;
16506;SDS011;8366;51.020;7.642;2022-09-24T06:00:41;7.60;;;6.47;;
16506;SDS011;8366;51.020;7.642;2022-09-24T06:03:10;11.33;;;7.43;;
16506;SDS011;8366;51.020;7.642;2022-09-24T06:05:37;9.50;;;7.43;;
16506;SDS011;8366;51.020;7.642;2022-09-24T06:08:04;11.30;;;8.27;;
16506;SDS011;8366;51.020;7.642;2022-09-24T06:10:32;9.43;;;7.20;;
16506;SDS011;8366;51.020;7.642;2022-09-24T06:12:59;9.83;;;6.50;;
16506;SDS011;8366;51.020;7.642;2022-09-24T06:15:25;8.27;;;6.30;;
16506;SDS011;8366;51.020;7.642;2022-09-24T06:17:53;8.47;;;6.33;;
16506;SDS011;8366;51.020;7.642;2022-09-24T06:20:20;8.53;;;6.13;;
16506;SDS011;8366;51.020;7.642;2022-09-24T06:22:47;7.33;;;6.40;;
16506;SDS011;8366;51.020;7.642;2022-09-24T06:25:14;10.40;;;6.77;;
16506;SDS011;8366;51.020;7.642;2022-09-24T06:27:41;9.80;;;7.90;;
16506;SDS011;8366;51.020;7.642;2022-09-24T06:30:08;9.97;;;7.60;;
16506;SDS011;8366;51.020;7.642;2022-09-24T06:32:35;8.90;;;7.50;;
16506;SDS011;8366;51.020;7.642;2022-09-24T06:35:04;9.17;;;7.27;;
16506;SDS011;8366;51.020;7.642;2022-09-24T06:37:30;11.03;;;7.47;;
16506;SDS011;8366;51.020;7.642;2022-09-24T06:39:58;7.60;;;6.80;;
16506;SDS011;8366;51.020;7.642;2022-09-24T06:42:24;10.77;;;7.37;;
16506;SDS011;8366;51.020;7.642;2022-09-24T06:44:51;9.13;;;6.80;;
16506;SDS011;8366;51.020;7.642;2022-09-24T06:47:18;9.60;;;7.23;;
16506;SDS011;8366;51.020;7.642;2022-09-24T06:49:44;8.40;;;6.80;;
16506;SDS011;8366;51.020;7.642;2022-09-24T06:52:13;7.97;;;7.17;;
16506;SDS011;8366;51.020;7.642;2022-09-24T06:54:40;9.53;;;7.53;;
16506;SDS011;8366;51.020;7.642;2022-09-24T06:57:06;10.67;;;7.90;;
16506;SDS011;8366;51.020;7.642;2022-09-24T06:59:33;13.50;;;8.10;;
16506;SDS011;8366;51.020;7.642;2022-09-24T07:01:59;10.57;;;7.60;;
16506;SDS011;8366;51.020;7.642;2022-09-24T07:04:26;10.80;;;7.90;;
16506;SDS011;8366;51.020;7.642;2022-09-24T07:06:52;12.97;;;8.60;;
16506;SDS011;8366;51.020;7.642;2022-09-24T07:09:38;12.50;;;8.30;;
16506;SDS011;8366;51.020;7.642;2022-09-24T07:12:05;11.43;;;8.23;;
16506;SDS011;8366;51.020;7.642;2022-09-24T07:14:33;10.73;;;8.40;;
16506;SDS011;8366;51.020;7.642;2022-09-24T07:16:59;10.47;;;8.10;;
16506;SDS011;8366;51.020;7.642;2022-09-24T07:19:26;10.17;;;7.80;;
16506;SDS011;8366;51.020;7.642;2022-09-24T07:21:52;10.07;;;8.00;;
16506;SDS011;8366;51.020;7.642;2022-09-24T07:24:19;10.13;;;7.70;;
16506;SDS011;8366;51.020;7.642;2022-09-24T07:26:47;10.50;;;8.00;;
16506;SDS011;8366;51.020;7.642;2022-09-24T07:29:13;9.37;;;7.23;;
16506;SDS011;8366;51.020;7.642;2022-09-24T07:31:40;10.63;;;7.87;;
16506;SDS011;8366;51.020;7.642;2022-09-24T07:34:06;12.30;;;7.80;;
16506;SDS011;8366;51.020;7.642;2022-09-24T07:36:33;10.37;;;7.73;;
16506;SDS011;8366;51.020;7.642;2022-09-24T07:38:59;9.93;;;7.40;;
16506;SDS011;8366;51.020;7.642;2022-09-24T07:41:26;10.30;;;7.50;;
16506;SDS011;8366;51.020;7.642;2022-09-24T07:43:55;9.67;;;7.53;;
16506;SDS011;8366;51.020;7.642;2022-09-24T07:46:22;9.23;;;7.27;;
16506;SDS011;8366;51.020;7.642;2022-09-24T07:48:48;12.73;;;7.70;;
16506;SDS011;8366;51.020;7.642;2022-09-24T07:51:18;8.90;;;7.73;;
16506;SDS011;8366;51.020;7.642;2022-09-24T07:53:44;9.83;;;8.30;;
16506;SDS011;8366;51.020;7.642;2022-09-24T07:56:11;10.27;;;8.37;;
16506;SDS011;8366;51.020;7.642;2022-09-24T07:58:37;12.70;;;8.83;;
16506;SDS011;8366;51.020;7.642;2022-09-24T08:01:05;10.53;;;8.40;;
16506;SDS011;8366;51.020;7.642;2022-09-24T08:03:31;12.33;;;8.60;;
16506;SDS011;8366;51.020;7.642;2022-09-24T08:05:58;13.27;;;9.20;;
16506;SDS011;8366;51.020;7.642;2022-09-24T08:08:25;11.23;;;8.77;;
16506;SDS011;8366;51.020;7.642;2022-09-24T08:10:52;13.60;;;8.48;;
16506;SDS011;8366;51.020;7.642;2022-09-24T08:13:19;12.67;;;8.43;;
16506;SDS011;8366;51.020;7.642;2022-09-24T08:15:45;11.60;;;8.97;;
16506;SDS011;8366;51.020;7.642;2022-09-24T08:18:13;14.97;;;9.00;;
16506;SDS011;8366;51.020;7.642;2022-09-24T08:20:39;11.73;;;8.90;;
16506;SDS011;8366;51.020;7.642;2022-09-24T08:23:06;13.53;;;8.60;;
16506;SDS011;8366;51.020;7.642;2022-09-24T08:25:34;11.70;;;8.40;;
16506;SDS011;8366;51.020;7.642;2022-09-24T08:28:01;14.10;;;10.30;;
16506;SDS011;8366;51.020;7.642;2022-09-24T08:30:28;13.57;;;9.50;;
16506;SDS011;8366;51.020;7.642;2022-09-24T08:32:55;11.17;;;9.37;;
16506;SDS011;8366;51.020;7.642;2022-09-24T08:35:22;12.60;;;9.60;;
16506;SDS011;8366;51.020;7.642;2022-09-24T08:37:49;11.33;;;9.20;;
16506;SDS011;8366;51.020;7.642;2022-09-24T08:40:19;12.43;;;9.27;;
16506;SDS011;8366;51.020;7.642;2022-09-24T08:42:47;12.87;;;10.77;;
16506;SDS011;8366;51.020;7.642;2022-09-24T08:45:16;12.63;;;9.37;;
16506;SDS011;8366;51.020;7.642;2022-09-24T08:48:02;11.60;;;9.48;;
16506;SDS011;8366;51.020;7.642;2022-09-24T08:50:35;15.05;;;10.20;;
16506;SDS011;8366;51.020;7.642;2022-09-24T08:53:11;12.87;;;10.03;;
16506;SDS011;8366;51.020;7.642;2022-09-24T08:55:39;11.80;;;10.18;;
16506;SDS011;8366;51.020;7.642;2022-09-24T08:58:13;14.60;;;10.52;;
16506;SDS011;8366;51.020;7.642;2022-09-24T09:00:50;14.05;;;10.00;;
16506;SDS011;8366;51.020;7.642;2022-09-24T09:03:22;13.27;;;10.05;;
16506;SDS011;8366;51.020;7.642;2022-09-24T09:05:54;14.55;;;10.65;;
16506;SDS011;8366;51.020;7.642;2022-09-24T09:08:27;15.82;;;11.13;;
16506;SDS011;8366;51.020;7.642;2022-09-24T09:11:00;18.00;;;11.50;;
16506;SDS011;8366;51.020;7.642;2022-09-24T09:13:29;13.05;;;10.25;;
16506;SDS011;8366;51.020;7.642;2022-09-24T09:15:59;15.85;;;10.80;;
16506;SDS011;8366;51.020;7.642;2022-09-24T09:18:29;13.68;;;10.90;;
16506;SDS011;8366;51.020;7.642;2022-09-24T09:21:04;15.68;;;11.27;;
16506;SDS011;8366;51.020;7.642;2022-09-24T09:23:33;19.17;;;11.57;;
16506;SDS011;8366;51.020;7.642;2022-09-24T09:26:07;16.35;;;11.32;;
16506;SDS011;8366;51.020;7.642;2022-09-24T09:28:35;17.00;;;12.55;;
16506;SDS011;8366;51.020;7.642;2022-09-24T09:31:03;17.70;;;12.18;;
16506;SDS011;8366;51.020;7.642;2022-09-24T09:33:39;17.35;;;11.50;;
16506;SDS011;8366;51.020;7.642;2022-09-24T09:36:20;16.80;;;11.02;;
16506;SDS011;8366;51.020;7.642;2022-09-24T09:39:10;15.80;;;11.32;;
16506;SDS011;8366;51.020;7.642;2022-09-24T09:41:52;13.73;;;10.45;;
16506;SDS011;8366;51.020;7.642;2022-09-24T09:44:23;18.20;;;11.20;;
16506;SDS011;8366;51.020;7.642;2022-09-24T09:46:52;16.67;;;10.88;;
16506;SDS011;8366;51.020;7.642;2022-09-24T09:49:20;14.90;;;11.32;;
16506;SDS011;8366;51.020;7.642;2022-09-24T09:51:49;17.17;;;11.63;;
16506;SDS011;8366;51.020;7.642;2022-09-24T09:54:18;15.07;;;11.18;;
16506;SDS011;8366;51.020;7.642;2022-09-24T09:56:46;18.85;;;12.80;;
16506;SDS011;8366;51.020;7.642;2022-09-24T09:59:15;16.95;;;11.50;;
16506;SDS011;8366;51.020;7.642;2022-09-24T10:01:44;18.10;;;13.10;;
16506;SDS011;8366;51.020;7.642;2022-09-24T10:04:22;17.90;;;12.40;;
16506;SDS011;8366;51.020;7.642;2022-09-24T10:07:03;19.00;;;13.10;;
16506;SDS011;8366;51.020;7.642;2022-09-24T10:09:30;19.13;;;13.18;;
16506;SDS011;8366;51.020;7.642;2022-09-24T10:12:04;21.58;;;12.88;;
16506;SDS011;8366;51.020;7.642;2022-09-24T10:14:32;21.95;;;14.63;;
16506;SDS011;8366;51.020;7.642;2022-09-24T10:16:58;24.15;;;15.15;;
16506;SDS011;8366;51.020;7.642;2022-09-24T10:19:29;25.52;;;15.20;;
16506;SDS011;8366;51.020;7.642;2022-09-24T10:21:57;19.48;;;13.60;;
16506;SDS011;8366;51.020;7.642;2022-09-24T10:24:25;21.65;;;13.65;;
16506;SDS011;8366;51.020;7.642;2022-09-24T10:26:52;21.05;;;13.75;;
16506;SDS011;8366;51.020;7.642;2022-09-24T10:29:20;20.30;;;13.00;;
16506;SDS011;8366;51.020;7.642;2022-09-24T10:32:05;20.80;;;13.30;;
16506;SDS011;8366;51.020;7.642;2022-09-24T10:34:32;19.23;;;12.63;;
16506;SDS011;8366;51.020;7.642;2022-09-24T10:36:59;17.27;;;11.75;;
16506;SDS011;8366;51.020;7.642;2022-09-24T10:39:28;19.67;;;12.57;;
16506;SDS011;8366;51.020;7.642;2022-09-24T10:41:55;17.23;;;11.93;;
16506;SDS011;8366;51.020;7.642;2022-09-24T10:44:23;16.60;;;11.27;;
16506;SDS011;8366;51.020;7.642;2022-09-24T10:46:53;20.55;;;12.25;;
16506;SDS011;8366;51.020;7.642;2022-09-24T10:49:32;18.95;;;12.15;;
16506;SDS011;8366;51.020;7.642;2022-09-24T10:52:06;15.57;;;11.40;;
16506;SDS011;8366;51.020;7.642;2022-09-24T10:54:41;20.65;;;13.18;;
16506;SDS011;8366;51.020;7.642;2022-09-24T10:57:15;22.13;;;12.50;;
16506;SDS011;8366;51.020;7.642;2022-09-24T10:59:50;20.40;;;13.07;;
16506;SDS011;8366;51.020;7.642;2022-09-24T11:02:28;20.10;;;13.20;;
16506;SDS011;8366;51.020;7.642;2022-09-24T11:05:06;17.95;;;12.15;;
16506;SDS011;8366;51.020;7.642;2022-09-24T11:07:41;19.35;;;12.50;;
16506;SDS011;8366;51.020;7.642;2022-09-24T11:10:33;20.27;;;13.48;;
16506;SDS011;8366;51.020;7.642;2022-09-24T11:13:12;19.50;;;12.70;;
16506;SDS011;8366;51.020;7.642;2022-09-24T11:15:47;20.30;;;11.77;;
16506;SDS011;8366;51.020;7.642;2022-09-24T11:18:26;19.17;;;10.35;;
16506;SDS011;8366;51.020;7.642;2022-09-24T11:21:02;15.75;;;10.23;;
16506;SDS011;8366;51.020;7.642;2022-09-24T11:26:22;14.32;;;10.32;;
16506;SDS011;8366;51.020;7.642;2022-09-24T11:28:59;13.60;;;10.23;;
16506;SDS011;8366;51.020;7.642;2022-09-24T11:31:36;15.07;;;10.43;;
16506;SDS011;8366;51.020;7.642;2022-09-24T11:34:13;13.25;;;9.82;;
16506;SDS011;8366;51.020;7.642;2022-09-24T11:36:48;13.90;;;10.55;;
16506;SDS011;8366;51.020;7.642;2022-09-24T11:39:22;14.52;;;10.48;;
16506;SDS011;8366;51.020;7.642;2022-09-24T11:41:59;14.52;;;10.02;;
16506;SDS011;8366;51.020;7.642;2022-09-24T11:44:40;12.73;;;9.57;;
16506;SDS011;8366;51.020;7.642;2022-09-24T11:47:34;14.63;;;10.52;;
16506;SDS011;8366;51.020;7.642;2022-09-24T11:50:13;14.82;;;10.32;;
16506;SDS011;8366;51.020;7.642;2022-09-24T11:52:43;15.35;;;10.57;;
16506;SDS011;8366;51.020;7.642;2022-09-24T11:55:13;15.57;;;10.00;;
16506;SDS011;8366;51.020;7.642;2022-09-24T11:57:44;17.35;;;10.75;;
16506;SDS011;8366;51.020;7.642;2022-09-24T12:00:14;17.63;;;11.43;;
16506;SDS011;8366;51.020;7.642;2022-09-24T12:02:42;15.43;;;10.90;;
16506;SDS011;8366;51.020;7.642;2022-09-24T12:05:11;15.10;;;10.27;;
16506;SDS011;8366;51.020;7.642;2022-09-24T12:07:42;18.42;;;10.90;;
16506;SDS011;8366;51.020;7.642;2022-09-24T12:10:19;18.98;;;10.27;;
16506;SDS011;8366;51.020;7.642;2022-09-24T12:12:51;15.38;;;11.13;;
16506;SDS011;8366;51.020;7.642;2022-09-24T12:15:20;18.27;;;12.13;;
16506;SDS011;8366;51.020;7.642;2022-09-24T12:17:49;16.00;;;10.98;;
16506;SDS011;8366;51.020;7.642;2022-09-24T12:20:17;18.33;;;11.52;;
16506;SDS011;8366;51.020;7.642;2022-09-24T12:22:46;14.85;;;10.52;;
16506;SDS011;8366;51.020;7.642;2022-09-24T12:25:14;17.77;;;11.13;;
16506;SDS011;8366;51.020;7.642;2022-09-24T12:27:41;20.02;;;12.35;;
16506;SDS011;8366;51.020;7.642;2022-09-24T12:30:17;15.88;;;10.68;;
16506;SDS011;8366;51.020;7.642;2022-09-24T12:33:08;14.43;;;10.20;;
16506;SDS011;8366;51.020;7.642;2022-09-24T12:35:41;17.08;;;11.02;;
16506;SDS011;8366;51.020;7.642;2022-09-24T12:38:14;17.15;;;11.02;;
16506;SDS011;8366;51.020;7.642;2022-09-24T12:40:57;17.15;;;11.02;;
16506;SDS011;8366;51.020;7.642;2022-09-24T12:43:52;15.43;;;11.23;;
16506;SDS011;8366;51.020;7.642;2022-09-24T12:46:24;17.30;;;14.20;;
16506;SDS011;8366;51.020;7.642;2022-09-24T12:48:52;16.73;;;10.63;;
16506;SDS011;8366;51.020;7.642;2022-09-24T12:51:19;17.25;;;10.30;;
16506;SDS011;8366;51.020;7.642;2022-09-24T12:53:55;16.27;;;11.07;;
16506;SDS011;8366;51.020;7.642;2022-09-24T12:56:23;15.65;;;10.75;;
16506;SDS011;8366;51.020;7.642;2022-09-24T12:58:51;19.40;;;15.07;;
16506;SDS011;8366;51.020;7.642;2022-09-24T13:01:26;15.60;;;12.10;;
16506;SDS011;8366;51.020;7.642;2022-09-24T13:04:04;16.67;;;10.80;;
16506;SDS011;8366;51.020;7.642;2022-09-24T13:06:46;17.00;;;10.98;;
16506;SDS011;8366;51.020;7.642;2022-09-24T13:09:33;16.35;;;10.77;;
16506;SDS011;8366;51.020;7.642;2022-09-24T13:12:05;17.92;;;10.45;;
16506;SDS011;8366;51.020;7.642;2022-09-24T13:14:47;14.43;;;9.45;;
16506;SDS011;8366;51.020;7.642;2022-09-24T13:17:17;14.05;;;9.30;;
16506;SDS011;8366;51.020;7.642;2022-09-24T13:19:44;15.10;;;9.77;;
16506;SDS011;8366;51.020;7.642;2022-09-24T13:22:19;12.80;;;9.63;;
16506;SDS011;8366;51.020;7.642;2022-09-24T13:24:48;14.93;;;10.25;;
16506;SDS011;8366;51.020;7.642;2022-09-24T13:27:18;16.35;;;9.38;;
16506;SDS011;8366;51.020;7.642;2022-09-24T13:29:47;11.43;;;8.90;;
16506;SDS011;8366;51.020;7.642;2022-09-24T13:32:27;11.13;;;8.02;;
16506;SDS011;8366;51.020;7.642;2022-09-24T13:34:58;11.60;;;8.32;;
16506;SDS011;8366;51.020;7.642;2022-09-24T13:37:32;12.27;;;8.43;;
16506;SDS011;8366;51.020;7.642;2022-09-24T13:40:02;11.10;;;8.55;;
16506;SDS011;8366;51.020;7.642;2022-09-24T13:42:32;10.95;;;7.85;;
16506;SDS011;8366;51.020;7.642;2022-09-24T13:45:02;11.05;;;8.65;;
16506;SDS011;8366;51.020;7.642;2022-09-24T13:47:33;13.02;;;8.50;;
16506;SDS011;8366;51.020;7.642;2022-09-24T13:50:03;10.45;;;8.70;;
16506;SDS011;8366;51.020;7.642;2022-09-24T13:52:34;12.25;;;8.75;;
16506;SDS011;8366;51.020;7.642;2022-09-24T13:55:05;12.70;;;8.82;;
16506;SDS011;8366;51.020;7.642;2022-09-24T13:57:41;12.45;;;8.60;;
16506;SDS011;8366;51.020;7.642;2022-09-24T14:00:12;15.13;;;9.63;;
16506;SDS011;8366;51.020;7.642;2022-09-24T14:02:43;11.43;;;8.75;;
16506;SDS011;8366;51.020;7.642;2022-09-24T14:05:17;12.23;;;9.00;;
16506;SDS011;8366;51.020;7.642;2022-09-24T14:07:51;12.05;;;9.18;;
16506;SDS011;8366;51.020;7.642;2022-09-24T14:10:19;13.68;;;9.70;;
16506;SDS011;8366;51.020;7.642;2022-09-24T14:12:57;12.50;;;8.52;;
16506;SDS011;8366;51.020;7.642;2022-09-24T14:15:24;12.43;;;9.20;;
16506;SDS011;8366;51.020;7.642;2022-09-24T14:17:55;13.25;;;9.70;;
16506;SDS011;8366;51.020;7.642;2022-09-24T14:20:22;12.13;;;9.65;;
16506;SDS011;8366;51.020;7.642;2022-09-24T14:22:50;14.23;;;9.35;;
16506;SDS011;8366;51.020;7.642;2022-09-24T14:25:18;14.60;;;9.48;;
16506;SDS011;8366;51.020;7.642;2022-09-24T14:27:47;14.32;;;10.02;;
16506;SDS011;8366;51.020;7.642;2022-09-24T14:30:16;14.05;;;10.15;;
16506;SDS011;8366;51.020;7.642;2022-09-24T14:32:44;12.32;;;9.20;;
16506;SDS011;8366;51.020;7.642;2022-09-24T14:35:16;14.68;;;9.80;;
16506;SDS011;8366;51.020;7.642;2022-09-24T14:37:45;12.23;;;9.20;;
16506;SDS011;8366;51.020;7.642;2022-09-24T14:40:16;14.02;;;9.07;;
16506;SDS011;8366;51.020;7.642;2022-09-24T14:42:44;12.25;;;9.73;;
16506;SDS011;8366;51.020;7.642;2022-09-24T14:45:15;11.05;;;8.95;;
16506;SDS011;8366;51.020;7.642;2022-09-24T14:47:44;12.32;;;8.95;;
16506;SDS011;8366;51.020;7.642;2022-09-24T14:50:26;12.75;;;8.93;;
16506;SDS011;8366;51.020;7.642;2022-09-24T14:52:59;14.65;;;9.32;;
16506;SDS011;8366;51.020;7.642;2022-09-24T14:55:34;13.27;;;9.10;;
16506;SDS011;8366;51.020;7.642;2022-09-24T14:58:01;14.07;;;9.18;;
16506;SDS011;8366;51.020;7.642;2022-09-24T15:00:28;11.70;;;8.98;;
16506;SDS011;8366;51.020;7.642;2022-09-24T15:02:58;12.02;;;8.93;;
16506;SDS011;8366;51.020;7.642;2022-09-24T15:05:27;11.38;;;8.93;;
16506;SDS011;8366;51.020;7.642;2022-09-24T15:08:07;11.88;;;8.98;;
16506;SDS011;8366;51.020;7.642;2022-09-24T15:10:35;12.10;;;9.23;;
16506;SDS011;8366;51.020;7.642;2022-09-24T15:13:11;12.27;;;9.73;;